Time,TemperatureF,DewpointF,PressureIn,WindDirection,WindDirectionDegrees,WindSpeedMPH,WindSpeedGustMPH,Humidity,HourlyPrecipIn,Conditions,Clouds,dailyrainin,SolarRadiationWatts/m^2,SoftwareType,DateUTC
2013-12-06 06:42:00,-23.0,-32.0,-100.00,SE,131,5.0,7.0,62,-99.99,,,0.00,0.000000,,2013-12-06 13:42:00,
2013-12-06 07:42:00,-21.0,-30.0,-100.00,SE,133,3.0,5.0,63,-99.99,,,0.00,0.000000,,2013-12-06 14:42:00,
2013-12-06 08:44:00,-20.0,-28.0,-100.00,SSE,148,3.0,5.0,64,0.00,,,0.00,3.000000,,2013-12-06 15:44:00,
2013-12-06 08:54:00,-20.0,-28.0,-100.00,SSE,148,3.0,5.0,64,0.00,,,0.00,3.000000,,2013-12-06 15:54:00,
2013-12-06 09:43:00,-17.0,-26.0,-100.00,SE,137,4.0,5.0,63,0.00,,,0.00,53.000000,,2013-12-06 16:43:00,
2013-12-06 09:53:00,-17.0,-26.0,-100.00,SE,137,4.0,5.0,63,0.00,,,0.00,53.000000,,2013-12-06 16:53:00,
2013-12-06 10:22:00,-15.0,-24.0,-100.00,SE,140,4.0,5.0,63,0.00,,,0.00,143.000000,,2013-12-06 17:22:00,
2013-12-06 10:33:00,-15.0,-24.0,-100.00,SE,140,4.0,5.0,63,0.00,,,0.00,143.000000,,2013-12-06 17:33:00,
2013-12-06 10:43:00,-15.0,-24.0,-100.00,SE,140,4.0,5.0,63,0.00,,,0.00,143.000000,,2013-12-06 17:43:00,
2013-12-06 10:52:00,-15.0,-24.0,-100.00,SE,140,4.0,5.0,63,0.00,,,0.00,143.000000,,2013-12-06 17:52:00,
2013-12-06 11:22:00,-9.0,-18.0,-100.00,SE,138,3.0,4.0,63,0.00,,,0.00,232.000000,,2013-12-06 18:22:00,
2013-12-06 11:33:00,-9.0,-18.0,-100.00,SE,138,3.0,4.0,63,0.00,,,0.00,232.000000,,2013-12-06 18:33:00,
2013-12-06 11:42:00,-9.0,-18.0,-100.00,SE,138,3.0,4.0,63,0.00,,,0.00,232.000000,,2013-12-06 18:42:00,
2013-12-06 11:52:00,-9.0,-18.0,-100.00,SE,138,3.0,4.0,63,0.00,,,0.00,232.000000,,2013-12-06 18:52:00,
2013-12-06 12:42:00,-8.0,-17.0,-100.00,SE,132,3.0,4.0,65,0.00,,,0.00,272.000000,,2013-12-06 19:42:00,
2013-12-06 12:52:00,-8.0,-17.0,-100.00,SE,132,3.0,4.0,65,0.00,,,0.00,272.000000,,2013-12-06 19:52:00,
2013-12-06 13:42:00,-2.0,-11.0,-100.00,SE,142,2.0,4.0,66,0.00,,,0.00,286.000000,,2013-12-06 20:42:00,
2013-12-06 13:52:00,-2.0,-11.0,-100.00,SE,142,2.0,4.0,66,0.00,,,0.00,286.000000,,2013-12-06 20:52:00,
2013-12-06 14:21:00,1.0,-8.0,-100.00,SE,142,2.0,4.0,64,0.00,,,0.00,249.000000,,2013-12-06 21:21:00,
2013-12-06 14:33:00,1.0,-8.0,-100.00,SE,142,2.0,4.0,64,0.00,,,0.00,249.000000,,2013-12-06 21:33:00,
2013-12-06 15:42:00,-2.0,-11.0,-100.00,SSE,160,1.0,4.0,65,-99.99,,,0.00,171.000000,,2013-12-06 22:42:00,
2013-12-06 15:53:00,-2.0,-11.0,-100.00,SSE,160,1.0,4.0,65,-99.99,,,0.00,171.000000,,2013-12-06 22:53:00,
2013-12-06 16:42:00,-3.0,-11.0,-100.00,ESE,103,2.0,3.0,68,0.00,,,0.00,79.000000,,2013-12-06 23:42:00,
2013-12-06 16:52:00,-3.0,-11.0,-100.00,ESE,103,2.0,3.0,68,0.00,,,0.00,79.000000,,2013-12-06 23:52:00,
2013-12-06 17:21:00,-15.0,-23.0,-100.00,ESE,103,2.0,3.0,66,0.00,,,0.00,7.000000,,2013-12-07 00:21:00,
2013-12-06 17:32:00,-15.0,-23.0,-100.00,ESE,103,2.0,3.0,66,0.00,,,0.00,7.000000,,2013-12-07 00:32:00,
2013-12-06 17:42:00,-15.0,-23.0,-100.00,ESE,103,2.0,3.0,66,0.00,,,0.00,7.000000,,2013-12-07 00:42:00,
2013-12-06 17:52:00,-15.0,-23.0,-100.00,ESE,103,2.0,3.0,66,0.00,,,0.00,7.000000,,2013-12-07 00:52:00,
2013-12-06 18:42:00,-19.0,-27.0,-100.00,ESE,103,1.0,3.0,67,0.00,,,0.00,0.000000,,2013-12-07 01:42:00,
2013-12-06 18:52:00,-19.0,-27.0,-100.00,ESE,103,1.0,3.0,67,0.00,,,0.00,0.000000,,2013-12-07 01:52:00,
2013-12-06 19:42:00,-21.0,-30.0,-100.00,SE,129,4.0,5.0,63,0.00,,,0.00,0.000000,,2013-12-07 02:42:00,
2013-12-06 19:52:00,-21.0,-30.0,-100.00,SE,129,4.0,5.0,63,0.00,,,0.00,0.000000,,2013-12-07 02:52:00,
2013-12-06 21:43:00,-23.0,-32.0,-100.00,SE,139,5.0,7.0,62,-99.99,,,0.00,0.000000,,2013-12-07 04:43:00,
2013-12-06 21:53:00,-23.0,-32.0,-100.00,SE,139,5.0,7.0,62,-99.99,,,0.00,0.000000,,2013-12-07 04:53:00,
2013-12-06 22:43:00,-25.0,-34.0,-100.00,SE,143,5.0,6.0,60,0.00,,,0.00,0.000000,,2013-12-07 05:43:00,
2013-12-06 23:43:00,-26.0,-35.0,-100.00,SE,134,6.0,7.0,61,-99.99,,,0.00,0.000000,,2013-12-07 06:43:00,